Time;durP1;ratioP1;P1;durP2;ratioP2;P2;SDS_P1;SDS_P2;PMS_P1;PMS_P2;Temp;Humidity;BMP_temperature;BMP_pressure;BME280_temperature;BME280_humidity;BME280_pressure;Samples;Min_cycle;Max_cycle;Signal;HPM_P1;HPM_P2
2022/01/12 00:00:25;;;;;;;30.55;14.40;;;-0.80;99.90;;;;;;5031751;28;20090;-71
2022/01/12 00:02:52;;;;;;;37.17;15.60;;;-0.90;99.90;;;;;;5050208;28;20178;-71
2022/01/12 00:05:20;;;;;;;33.95;14.93;;;-1.00;99.90;;;;;;5017939;28;20071;-72
2022/01/12 00:07:51;;;;;;;40.33;17.35;;;-1.10;99.90;;;;;;5031614;28;20548;-71
2022/01/12 00:10:20;;;;;;;38.47;16.17;;;-1.00;99.90;;;;;;5032425;28;20067;-70
2022/01/12 00:12:47;;;;;;;31.38;12.23;;;-1.10;99.90;;;;;;5032839;28;20101;-70
2022/01/12 00:15:15;;;;;;;33.42;11.63;;;-1.00;99.90;;;;;;5033963;28;20059;-71
2022/01/12 00:17:42;;;;;;;29.13;11.68;;;-1.10;99.90;;;;;;5029681;28;20048;-70
2022/01/12 00:20:10;;;;;;;28.98;12.20;;;-1.10;99.90;;;;;;5051675;28;20067;-71
2022/01/12 00:22:39;;;;;;;28.38;11.32;;;-0.90;99.90;;;;;;5033767;28;20048;-70
2022/01/12 00:33:15;;;;;;;25.05;10.73;;;-1.20;99.90;;;;;;5012276;28;20053;-83
2022/01/12 00:35:51;;;;;;;25.17;10.27;;;-1.20;99.90;;;;;;5008469;28;20465;-83
2022/01/12 00:38:19;;;;;;;26.20;11.07;;;-1.20;99.90;;;;;;5009678;28;20541;-83
2022/01/12 00:40:51;;;;;;;32.13;12.55;;;-1.20;99.90;;;;;;5014151;28;20552;-83
2022/01/12 00:43:20;;;;;;;23.60;11.38;;;-1.20;99.90;;;;;;5003976;28;20053;-83
2022/01/12 00:45:47;;;;;;;27.73;11.57;;;-1.10;99.90;;;;;;4999835;28;20406;-83
2022/01/12 00:48:16;;;;;;;28.05;11.55;;;-1.10;99.90;;;;;;4998552;28;20060;-83
2022/01/12 00:50:44;;;;;;;28.60;12.85;;;-1.10;99.90;;;;;;5014652;28;20049;-84
2022/01/12 00:53:11;;;;;;;32.45;14.65;;;-1.10;99.90;;;;;;5014464;28;20421;-83
2022/01/12 00:55:38;;;;;;;32.00;13.80;;;-1.10;99.90;;;;;;5013628;28;20049;-83
2022/01/12 00:58:05;;;;;;;28.52;13.55;;;-1.10;99.90;;;;;;5013815;28;20057;-83
2022/01/12 01:00:33;;;;;;;30.63;14.07;;;-1.20;99.90;;;;;;5012438;28;20103;-83
2022/01/12 01:03:00;;;;;;;29.42;12.73;;;-1.00;99.90;;;;;;5015150;28;20049;-83
2022/01/12 01:05:31;;;;;;;20.73;11.35;;;-0.90;99.90;;;;;;5015482;28;20116;-84
2022/01/12 01:08:01;;;;;;;24.75;12.13;;;-1.00;99.90;;;;;;4996164;28;20081;-83
2022/01/12 01:13:04;;;;;;;27.58;12.00;;;-0.90;99.90;;;;;;5016608;28;20412;-83
2022/01/12 01:15:57;;;;;;;29.05;12.13;;;-0.80;99.90;;;;;;5015734;28;20076;-84
2022/01/12 01:26:47;;;;;;;23.23;10.30;;;-0.60;99.90;;;;;;5030216;28;20046;-84
2022/01/12 01:29:14;;;;;;;26.15;11.13;;;-0.50;99.90;;;;;;5015318;28;20482;-82
2022/01/12 01:31:43;;;;;;;26.42;10.73;;;-0.50;99.90;;;;;;5010620;28;20057;-83
2022/01/12 01:34:13;;;;;;;24.52;10.60;;;-0.40;99.90;;;;;;5015905;28;20073;-83
2022/01/12 01:36:50;;;;;;;28.80;12.05;;;-0.30;99.90;;;;;;5019583;28;20433;-83
2022/01/12 01:39:22;;;;;;;26.80;10.55;;;-0.20;99.90;;;;;;5016045;28;20049;-83
2022/01/12 01:41:53;;;;;;;23.48;10.77;;;-0.10;99.90;;;;;;5014863;28;20037;-84
2022/01/12 01:55:30;;;;;;;16.63;8.13;;;-0.10;99.90;;;;;;4994767;28;20057;-82
2022/01/12 01:57:57;;;;;;;20.80;8.82;;;-0.30;99.90;;;;;;5011674;28;20061;-82
2022/01/12 02:00:28;;;;;;;18.98;9.05;;;-0.40;99.90;;;;;;5020167;28;20053;-83
2022/01/12 02:03:01;;;;;;;24.10;9.48;;;-0.40;99.90;;;;;;5010402;28;20653;-84
2022/01/12 02:05:42;;;;;;;27.77;11.05;;;-0.30;99.90;;;;;;5015091;28;20075;-84
2022/01/12 02:08:10;;;;;;;22.42;10.32;;;-0.20;99.90;;;;;;5014903;28;20052;-84
2022/01/12 02:10:56;;;;;;;23.63;10.73;;;-0.20;99.90;;;;;;5014906;28;20457;-83
2022/01/12 02:13:24;;;;;;;19.05;9.68;;;-0.10;99.90;;;;;;4998972;28;20054;-84
2022/01/12 02:15:53;;;;;;;26.17;11.23;;;0.00;99.90;;;;;;5014520;28;20059;-83
2022/01/12 02:40:39;;;;;;;16.98;8.25;;;0.50;99.90;;;;;;5050567;28;20045;-83
2022/01/12 02:51:16;;;;;;;17.83;9.02;;;0.50;99.90;;;;;;5034356;28;20051;-83
2022/01/12 02:53:44;;;;;;;18.38;9.07;;;0.50;99.90;;;;;;5016674;28;20155;-83
2022/01/12 02:56:17;;;;;;;16.02;8.38;;;0.30;99.90;;;;;;5032533;28;20041;-83
2022/01/12 02:58:46;;;;;;;16.25;9.30;;;0.50;99.90;;;;;;5034715;28;20045;-84
2022/01/12 03:03:48;;;;;;;21.17;10.57;;;0.50;99.90;;;;;;5050993;28;20049;-83
2022/01/12 03:06:21;;;;;;;23.55;10.88;;;0.50;99.90;;;;;;5033792;28;20060;-83
2022/01/12 03:08:48;;;;;;;19.60;10.25;;;0.50;99.90;;;;;;5034010;28;20057;-84
2022/01/12 03:11:18;;;;;;;23.17;10.38;;;0.50;99.90;;;;;;5016660;28;20049;-83
2022/01/12 03:13:49;;;;;;;23.55;11.13;;;0.60;99.90;;;;;;5033564;28;20480;-83
2022/01/12 03:16:19;;;;;;;20.33;10.55;;;0.60;99.90;;;;;;5033931;28;20053;-83
2022/01/12 03:18:49;;;;;;;17.35;9.98;;;0.60;99.90;;;;;;5017826;28;20041;-85
2022/01/12 03:21:23;;;;;;;18.33;9.48;;;0.70;99.90;;;;;;5018923;28;20485;-83
2022/01/12 03:23:51;;;;;;;19.45;10.40;;;0.70;99.90;;;;;;5035666;28;20517;-84
2022/01/12 03:26:19;;;;;;;20.52;9.95;;;0.70;99.90;;;;;;5036192;28;20106;-84
2022/01/12 03:28:53;;;;;;;17.85;8.82;;;0.80;99.90;;;;;;5033984;28;20095;-83
2022/01/12 03:31:24;;;;;;;17.73;9.20;;;0.80;99.90;;;;;;5040448;28;20059;-84
2022/01/12 03:34:31;;;;;;;20.15;10.02;;;0.80;99.90;;;;;;5027843;28;20064;-84
2022/01/12 03:39:22;;;;;;;20.77;9.23;;;0.90;99.90;;;;;;5034086;28;20459;-83
2022/01/12 03:41:50;;;;;;;17.50;9.80;;;1.00;99.90;;;;;;5017387;28;20043;-83
2022/01/12 03:44:18;;;;;;;19.92;8.82;;;1.00;99.90;;;;;;5019205;28;20148;-84
2022/01/12 03:46:49;;;;;;;15.90;8.50;;;1.10;99.90;;;;;;5033074;28;20511;-84
2022/01/12 03:49:19;;;;;;;16.23;9.38;;;1.10;99.90;;;;;;5033545;28;20045;-84
2022/01/12 03:51:46;;;;;;;16.77;8.30;;;1.00;99.90;;;;;;5030418;28;20171;-85
2022/01/12 03:54:14;;;;;;;17.23;8.77;;;1.00;99.90;;;;;;5015141;28;20073;-83
2022/01/12 03:56:41;;;;;;;15.82;8.75;;;1.00;99.90;;;;;;5026919;28;20049;-84
2022/01/12 03:59:08;;;;;;;20.55;9.13;;;1.10;99.90;;;;;;5022230;28;20076;-85
2022/01/12 04:01:35;;;;;;;16.52;8.82;;;1.00;99.90;;;;;;5019585;28;20056;-83
2022/01/12 04:04:08;;;;;;;19.95;9.45;;;1.00;99.90;;;;;;5048839;28;20064;-84
2022/01/12 04:09:41;;;;;;;17.75;8.45;;;1.10;99.90;;;;;;5034630;28;20410;-84
2022/01/12 04:12:09;;;;;;;15.40;8.60;;;1.30;99.90;;;;;;5034108;28;20033;-83
2022/01/12 04:14:37;;;;;;;12.32;7.25;;;1.40;99.90;;;;;;5035137;28;20072;-83
2022/01/12 04:17:04;;;;;;;16.73;6.82;;;1.50;99.90;;;;;;5033814;28;20554;-84
2022/01/12 04:19:32;;;;;;;15.82;9.25;;;1.50;99.90;;;;;;5034600;28;20110;-84
2022/01/12 04:22:08;;;;;;;21.55;7.95;;;1.50;99.90;;;;;;5034622;28;20037;-84
2022/01/12 04:24:35;;;;;;;16.58;7.63;;;1.50;99.90;;;;;;5017697;28;20045;-83
2022/01/12 04:27:02;;;;;;;18.55;7.90;;;1.50;99.90;;;;;;5017786;28;20103;-84
2022/01/12 04:29:29;;;;;;;14.90;8.13;;;1.50;99.90;;;;;;5018615;28;20049;-83
2022/01/12 04:31:56;;;;;;;16.33;8.82;;;1.60;99.90;;;;;;5040906;28;20041;-83
2022/01/12 04:34:23;;;;;;;13.63;8.82;;;1.60;99.90;;;;;;5037324;28;20075;-84
2022/01/12 04:36:50;;;;;;;14.93;9.27;;;1.60;99.90;;;;;;5016830;28;20049;-83
2022/01/12 04:39:16;;;;;;;14.60;9.52;;;1.50;99.90;;;;;;5035220;28;20041;-84
2022/01/12 04:41:43;;;;;;;22.20;11.57;;;1.50;99.90;;;;;;5017039;28;20053;-83
2022/01/12 04:44:12;;;;;;;20.90;11.00;;;1.60;99.90;;;;;;5034953;28;20064;-84
2022/01/12 04:46:51;;;;;;;22.60;11.30;;;1.60;99.90;;;;;;5035487;28;20049;-84
2022/01/12 04:52:05;;;;;;;17.92;9.70;;;1.70;99.90;;;;;;5015353;28;20114;-83
2022/01/12 04:54:32;;;;;;;17.17;11.20;;;1.70;99.90;;;;;;5031889;28;20593;-83
2022/01/12 04:56:58;;;;;;;17.20;10.50;;;1.70;99.90;;;;;;5043900;28;20060;-84
2022/01/12 04:59:26;;;;;;;19.20;10.20;;;1.60;99.90;;;;;;5034201;28;20079;-83
2022/01/12 05:01:58;;;;;;;14.02;9.35;;;1.70;99.90;;;;;;5048463;28;20766;-85
2022/01/12 05:07:26;;;;;;;;;;;1.60;99.90;;;;;;5050989;28;20068;-85
2022/01/12 05:12:52;;;;;;;15.00;8.75;;;1.60;99.90;;;;;;5031023;28;20049;-84
2022/01/12 05:15:34;;;;;;;13.73;8.88;;;1.60;99.90;;;;;;5031283;28;20765;-85
2022/01/12 05:18:01;;;;;;;14.93;9.57;;;1.60;99.90;;;;;;5018530;28;20053;-85
2022/01/12 05:20:27;;;;;;;19.83;10.02;;;1.60;99.90;;;;;;5033277;28;20048;-85
2022/01/12 05:22:54;;;;;;;16.40;10.43;;;1.60;99.90;;;;;;5033980;28;20049;-85
2022/01/12 05:25:22;;;;;;;20.55;11.88;;;1.70;99.90;;;;;;5035826;28;20080;-85
2022/01/12 05:27:49;;;;;;;15.02;11.40;;;1.70;99.90;;;;;;5038123;28;20057;-85
2022/01/12 05:30:16;;;;;;;16.58;10.68;;;1.70;99.90;;;;;;5036789;28;20041;-85
2022/01/12 05:32:46;;;;;;;15.82;9.90;;;1.70;99.90;;;;;;5040472;28;20060;-85
2022/01/12 05:35:17;;;;;;;17.30;11.20;;;1.80;99.90;;;;;;5020715;28;20059;-86
2022/01/12 05:37:45;;;;;;;18.90;9.55;;;1.80;99.90;;;;;;5037501;28;20148;-85
2022/01/12 05:40:14;;;;;;;15.48;10.18;;;1.80;99.90;;;;;;5038559;28;20041;-85
2022/01/12 05:42:42;;;;;;;18.55;10.05;;;1.80;99.90;;;;;;5038929;28;20040;-85
2022/01/12 05:45:10;;;;;;;17.48;10.73;;;1.80;99.90;;;;;;5022013;28;20106;-85
2022/01/12 05:50:06;;;;;;;13.50;7.80;;;1.90;99.90;;;;;;5036926;28;20152;-85
2022/01/12 05:52:33;;;;;;;9.55;6.72;;;1.90;99.90;;;;;;5023116;28;20554;-84
2022/01/12 05:55:02;;;;;;;10.13;6.90;;;1.80;99.90;;;;;;5023287;28;20051;-85
2022/01/12 05:57:31;;;;;;;14.45;9.40;;;1.80;99.90;;;;;;5022000;28;20429;-84
2022/01/12 05:59:59;;;;;;;25.50;12.18;;;1.90;99.90;;;;;;5022566;28;20068;-84
2022/01/12 06:02:26;;;;;;;24.48;13.57;;;1.90;99.90;;;;;;5049943;28;20052;-85
2022/01/12 06:04:53;;;;;;;17.05;9.98;;;1.90;99.90;;;;;;5055452;28;20337;-84
2022/01/12 06:07:21;;;;;;;17.00;9.35;;;1.90;99.90;;;;;;5038637;28;20049;-84
2022/01/12 06:09:48;;;;;;;15.02;8.95;;;1.90;99.90;;;;;;5040020;28;20604;-85
2022/01/12 06:12:15;;;;;;;15.65;9.35;;;1.90;99.90;;;;;;5052149;28;20412;-85
2022/01/12 06:14:43;;;;;;;14.55;9.13;;;1.90;99.90;;;;;;5038037;28;20055;-84
2022/01/12 06:17:10;;;;;;;14.65;9.13;;;1.90;99.90;;;;;;5037764;28;20036;-85
2022/01/12 06:19:39;;;;;;;12.02;8.70;;;1.90;99.90;;;;;;5030677;28;20445;-84
2022/01/12 06:22:19;;;;;;;12.80;7.78;;;1.90;99.90;;;;;;5039980;28;20494;-84
2022/01/12 06:24:46;;;;;;;12.98;8.60;;;1.90;99.90;;;;;;5022757;28;20045;-85
2022/01/12 06:27:16;;;;;;;12.40;8.27;;;1.80;99.90;;;;;;5037870;28;20059;-85
2022/01/12 06:30:02;;;;;;;19.60;9.35;;;1.80;99.90;;;;;;5037075;28;20034;-84
2022/01/12 06:32:30;;;;;;;12.88;8.63;;;1.80;99.90;;;;;;5026728;28;20067;-85
2022/01/12 06:34:57;;;;;;;14.23;8.32;;;1.80;99.90;;;;;;5055848;28;20049;-85
2022/01/12 06:37:24;;;;;;;16.05;8.60;;;1.80;99.90;;;;;;5053786;28;20056;-85
2022/01/12 06:39:51;;;;;;;14.55;8.95;;;1.80;99.90;;;;;;5053826;28;20041;-84
2022/01/12 06:42:18;;;;;;;14.20;8.90;;;1.90;99.90;;;;;;5039837;28;20106;-85
2022/01/12 06:44:47;;;;;;;22.33;9.52;;;1.90;99.90;;;;;;5039719;28;20041;-85
2022/01/12 06:47:14;;;;;;;18.27;10.20;;;1.90;99.90;;;;;;5038594;28;20041;-85
2022/01/12 06:49:41;;;;;;;24.17;12.82;;;2.00;99.90;;;;;;5038296;28;20075;-85
2022/01/12 06:52:09;;;;;;;19.13;10.02;;;2.10;99.90;;;;;;5046911;28;20056;-85
2022/01/12 06:54:36;;;;;;;21.13;10.82;;;2.00;99.90;;;;;;5059511;28;20040;-86
2022/01/12 06:57:04;;;;;;;18.55;10.95;;;2.10;99.90;;;;;;5049482;28;20049;-85
2022/01/12 06:59:31;;;;;;;26.63;12.25;;;2.20;99.90;;;;;;5064826;28;20073;-85
2022/01/12 07:01:59;;;;;;;17.65;11.43;;;2.10;99.90;;;;;;5056043;22;20052;-70
2022/01/12 07:04:32;;;;;;;20.58;12.82;;;2.10;99.90;;;;;;5014580;28;20490;-70
2022/01/12 07:06:59;;;;;;;21.02;10.35;;;2.20;99.90;;;;;;5015626;28;20691;-71
2022/01/12 07:09:26;;;;;;;18.20;11.13;;;2.20;99.90;;;;;;5017267;28;20099;-70
2022/01/12 07:12:04;;;;;;;15.63;10.15;;;2.20;99.90;;;;;;5016793;28;20044;-71
2022/01/12 07:14:34;;;;;;;16.30;10.20;;;2.20;99.90;;;;;;5001092;28;20264;-70
2022/01/12 07:17:01;;;;;;;15.15;9.80;;;2.20;99.90;;;;;;5015220;28;20409;-71
2022/01/12 07:19:28;;;;;;;17.17;11.40;;;2.20;99.90;;;;;;5016575;28;20041;-71
2022/01/12 07:21:57;;;;;;;43.10;21.95;;;2.20;99.90;;;;;;5014950;28;20168;-70
2022/01/12 07:24:23;;;;;;;161.70;69.57;;;2.20;99.90;;;;;;5033228;28;20098;-70
2022/01/12 07:26:50;;;;;;;129.25;58.53;;;2.20;99.90;;;;;;5032259;28;20053;-70
2022/01/12 07:29:17;;;;;;;111.40;49.70;;;2.30;99.90;;;;;;5031186;28;20069;-70
2022/01/12 07:31:46;;;;;;;79.65;35.92;;;2.40;99.90;;;;;;5031350;28;20432;-69
2022/01/12 07:34:14;;;;;;;114.75;48.63;;;2.40;99.90;;;;;;5014613;28;20520;-69
2022/01/12 07:36:42;;;;;;;35.85;19.40;;;2.30;99.90;;;;;;5010005;28;20045;-70
2022/01/12 07:39:09;;;;;;;41.85;26.25;;;2.30;99.90;;;;;;5031867;28;20310;-69
2022/01/12 07:41:36;;;;;;;28.23;17.65;;;2.30;99.90;;;;;;5029769;28;20045;-69
2022/01/12 07:44:04;;;;;;;43.30;26.10;;;2.20;99.90;;;;;;5030403;28;20048;-70
2022/01/12 07:46:30;;;;;;;31.45;17.30;;;2.20;99.90;;;;;;5023047;28;20099;-69
2022/01/12 07:48:57;;;;;;;22.38;13.45;;;2.20;99.90;;;;;;5026112;28;20068;-70
2022/01/12 07:51:24;;;;;;;20.05;12.23;;;2.20;99.90;;;;;;5023452;28;20061;-69
2022/01/12 07:53:51;;;;;;;17.23;12.75;;;2.20;99.90;;;;;;5009567;28;20349;-69
2022/01/12 07:56:18;;;;;;;16.90;12.85;;;2.20;99.90;;;;;;5030878;28;20049;-70
2022/01/12 07:58:44;;;;;;;22.35;14.15;;;2.30;99.90;;;;;;5029572;28;20059;-71
2022/01/12 08:01:12;;;;;;;19.00;13.13;;;2.30;99.90;;;;;;5030559;28;20586;-69
2022/01/12 08:03:39;;;;;;;25.70;16.38;;;2.30;99.90;;;;;;5029496;28;20290;-69
2022/01/12 08:06:06;;;;;;;30.40;16.95;;;2.30;99.90;;;;;;5024502;28;20083;-70
2022/01/12 08:08:33;;;;;;;21.30;13.95;;;2.40;99.90;;;;;;5012488;28;20073;-70
2022/01/12 08:11:00;;;;;;;20.25;13.70;;;2.50;99.90;;;;;;5020390;28;20178;-70
2022/01/12 08:13:27;;;;;;;22.10;15.65;;;2.50;99.90;;;;;;5032467;28;20045;-70
2022/01/12 08:15:53;;;;;;;20.42;14.73;;;2.50;99.90;;;;;;5033116;28;20170;-70
2022/01/12 08:18:20;;;;;;;29.67;19.75;;;2.50;99.90;;;;;;5031280;28;20041;-70
2022/01/12 08:20:47;;;;;;;22.02;15.23;;;2.50;99.90;;;;;;5015246;28;20512;-70
2022/01/12 08:23:14;;;;;;;19.38;14.68;;;2.60;99.90;;;;;;5032738;28;20095;-69
2022/01/12 08:25:41;;;;;;;20.45;14.82;;;2.60;99.90;;;;;;5032667;28;20045;-70
2022/01/12 08:28:08;;;;;;;18.48;15.73;;;2.60;99.90;;;;;;5032880;28;20376;-71
2022/01/12 08:30:35;;;;;;;21.48;14.63;;;2.70;99.90;;;;;;5024416;28;20433;-70
2022/01/12 08:33:03;;;;;;;20.33;14.98;;;2.70;99.90;;;;;;5032810;28;20052;-70
2022/01/12 08:35:31;;;;;;;21.33;15.27;;;2.70;99.90;;;;;;5032960;28;20493;-71
2022/01/12 08:37:58;;;;;;;19.13;14.15;;;2.70;99.90;;;;;;5014936;28;20049;-71
2022/01/12 08:40:25;;;;;;;19.00;13.77;;;2.70;99.90;;;;;;5032925;28;20068;-69
2022/01/12 08:42:52;;;;;;;17.55;14.25;;;2.70;99.90;;;;;;5032476;28;20474;-70
2022/01/12 08:45:19;;;;;;;20.90;14.95;;;2.70;99.90;;;;;;5032876;28;20048;-70
2022/01/12 08:47:46;;;;;;;21.33;14.93;;;2.70;99.90;;;;;;5011099;28;20098;-70
2022/01/12 08:50:13;;;;;;;22.75;14.57;;;2.70;99.90;;;;;;5014864;28;20528;-70
2022/01/12 08:52:44;;;;;;;19.33;13.85;;;2.80;99.90;;;;;;5033575;28;20049;-70
2022/01/12 08:55:18;;;;;;;21.02;15.35;;;2.80;99.90;;;;;;4999051;28;20068;-70
2022/01/12 08:57:45;;;;;;;20.88;13.90;;;2.80;99.90;;;;;;5031628;28;20102;-69
2022/01/12 09:00:13;;;;;;;20.80;15.23;;;2.80;99.90;;;;;;5034974;28;20491;-70
2022/01/12 09:02:40;;;;;;;16.80;12.88;;;2.80;99.90;;;;;;5035194;28;20049;-70
2022/01/12 09:05:07;;;;;;;24.20;15.10;;;2.80;99.90;;;;;;5037612;28;20048;-71
2022/01/12 09:07:34;;;;;;;16.95;13.68;;;2.80;99.90;;;;;;5018015;28;20503;-70
2022/01/12 09:10:02;;;;;;;19.65;14.45;;;2.80;99.90;;;;;;5019459;28;20073;-70
2022/01/12 09:12:29;;;;;;;23.38;14.27;;;2.90;99.90;;;;;;5037317;28;20556;-70
2022/01/12 09:14:56;;;;;;;26.90;15.32;;;2.80;99.90;;;;;;5018558;28;20366;-69
2022/01/12 09:17:23;;;;;;;20.85;14.65;;;2.80;99.90;;;;;;5020972;28;20139;-71
2022/01/12 09:19:52;;;;;;;22.45;15.68;;;2.90;99.90;;;;;;5018992;28;20057;-69
2022/01/12 09:22:19;;;;;;;19.90;15.20;;;2.90;99.90;;;;;;5036923;28;20037;-69
2022/01/12 09:24:46;;;;;;;26.00;14.98;;;3.00;99.90;;;;;;5034802;28;20454;-71
2022/01/12 09:27:14;;;;;;;24.20;16.40;;;3.10;99.90;;;;;;5035182;28;20091;-70
2022/01/12 09:29:42;;;;;;;18.17;14.40;;;3.00;99.90;;;;;;5017432;28;20087;-70
2022/01/12 09:32:10;;;;;;;27.83;16.75;;;3.00;99.90;;;;;;5035842;28;20049;-71
2022/01/12 09:34:37;;;;;;;26.10;16.15;;;3.00;99.90;;;;;;5028094;28;20052;-70
2022/01/12 09:37:04;;;;;;;20.23;14.80;;;2.90;99.90;;;;;;5035544;28;20139;-70
2022/01/12 09:39:34;;;;;;;30.27;17.80;;;3.00;99.90;;;;;;5036118;28;20057;-70
2022/01/12 09:42:02;;;;;;;28.48;17.88;;;3.00;99.90;;;;;;5036486;28;20371;-70
2022/01/12 09:44:34;;;;;;;25.42;15.40;;;3.10;99.90;;;;;;5036703;28;20488;-72
2022/01/12 09:47:04;;;;;;;26.98;16.58;;;3.10;99.90;;;;;;5034411;28;20045;-70
2022/01/12 09:49:32;;;;;;;32.08;17.27;;;3.00;99.90;;;;;;5033806;28;20049;-70
2022/01/12 09:51:59;;;;;;;30.17;17.48;;;3.00;99.90;;;;;;5017876;28;20099;-69
2022/01/12 09:54:27;;;;;;;31.48;17.20;;;3.00;99.90;;;;;;5018952;28;20048;-70
2022/01/12 09:56:54;;;;;;;29.65;17.38;;;3.00;99.90;;;;;;5035803;28;20049;-70
2022/01/12 09:59:22;;;;;;;33.70;18.75;;;3.00;99.90;;;;;;5036573;28;20057;-72
2022/01/12 10:01:49;;;;;;;34.58;19.70;;;3.00;99.90;;;;;;5015136;28;20037;-70
2022/01/12 10:04:19;;;;;;;35.88;19.70;;;3.00;99.90;;;;;;5036377;28;20375;-71
2022/01/12 10:06:53;;;;;;;34.40;19.38;;;2.90;99.90;;;;;;5026525;28;20509;-70
2022/01/12 10:09:44;;;;;;;37.85;19.33;;;2.90;99.90;;;;;;5036542;28;20049;-71
2022/01/12 10:12:16;;;;;;;32.47;18.98;;;3.00;99.90;;;;;;5035321;28;20460;-71
2022/01/12 10:14:58;;;;;;;32.75;18.85;;;3.10;99.90;;;;;;5032317;28;20064;-71
2022/01/12 10:17:33;;;;;;;35.05;18.58;;;3.20;99.90;;;;;;5033093;28;20045;-73
2022/01/12 10:20:08;;;;;;;42.53;22.33;;;3.20;99.90;;;;;;5015664;28;20049;-70
2022/01/12 10:22:36;;;;;;;33.90;20.85;;;3.20;99.90;;;;;;5020749;28;20076;-71
2022/01/12 10:25:18;;;;;;;46.10;23.02;;;3.10;99.90;;;;;;5033214;28;20445;-70
2022/01/12 10:27:46;;;;;;;35.80;20.27;;;3.20;99.90;;;;;;5015651;28;20056;-70
2022/01/12 10:30:21;;;;;;;38.50;21.40;;;3.20;99.90;;;;;;5018308;28;20052;-70
2022/01/12 10:33:06;;;;;;;42.80;22.15;;;3.10;99.90;;;;;;5035195;28;20059;-70
2022/01/12 10:35:42;;;;;;;44.67;23.48;;;3.10;99.90;;;;;;4995727;28;20044;-70
2022/01/12 10:38:12;;;;;;;37.35;21.05;;;3.00;99.90;;;;;;5030524;28;20748;-73
2022/01/12 10:40:48;;;;;;;40.85;21.52;;;2.90;99.90;;;;;;5021651;28;20045;-73
2022/01/12 10:43:29;;;;;;;46.85;25.73;;;2.90;99.90;;;;;;5035109;28;20279;-72
2022/01/12 10:45:57;;;;;;;51.75;25.00;;;2.90;99.90;;;;;;5034390;28;20132;-73
2022/01/12 10:48:31;;;;;;;48.42;24.08;;;2.90;99.90;;;;;;5032418;28;20486;-73
2022/01/12 10:50:59;;;;;;;46.85;23.90;;;2.90;99.90;;;;;;5032726;28;20250;-71
2022/01/12 10:53:33;;;;;;;51.58;24.48;;;2.90;99.90;;;;;;5016314;28;20478;-74
2022/01/12 10:56:19;;;;;;;47.35;24.40;;;2.90;99.90;;;;;;5000705;28;20044;-71
2022/01/12 10:58:48;;;;;;;51.90;23.77;;;2.90;99.90;;;;;;5002728;28;20056;-73
2022/01/12 11:01:18;;;;;;;55.92;27.58;;;2.90;99.90;;;;;;5034507;28;20076;-73
2022/01/12 12:10:41;;;;;;;99.18;43.75;;;2.70;99.90;;;;;;5001871;28;20065;-72
2022/01/12 12:13:11;;;;;;;101.97;46.33;;;2.60;99.90;;;;;;5023780;28;20041;-70
2022/01/12 12:15:38;;;;;;;108.85;49.33;;;2.50;99.90;;;;;;5028985;28;20139;-71
2022/01/12 12:18:06;;;;;;;133.10;52.38;;;2.50;99.90;;;;;;5029879;28;20037;-71
2022/01/12 12:20:33;;;;;;;117.72;55.03;;;2.50;99.90;;;;;;5011509;28;20537;-71
2022/01/12 12:23:01;;;;;;;123.80;50.65;;;2.40;99.90;;;;;;5009965;28;20115;-70
2022/01/12 12:25:30;;;;;;;127.93;49.97;;;2.50;99.90;;;;;;5011410;28;20102;-71
2022/01/12 12:27:59;;;;;;;124.28;48.47;;;2.50;99.90;;;;;;5029212;28;20512;-69
2022/01/12 12:30:28;;;;;;;132.27;51.30;;;2.50;99.90;;;;;;5055436;22;20048;-74
2022/01/12 12:32:57;;;;;;;133.23;51.35;;;2.50;99.90;;;;;;5057080;28;20071;-74
2022/01/12 12:35:26;;;;;;;140.32;54.63;;;2.50;99.90;;;;;;5044178;28;20114;-75
2022/01/12 12:37:57;;;;;;;149.75;55.53;;;2.50;99.90;;;;;;5045590;28;20121;-74
2022/01/12 12:40:27;;;;;;;151.82;60.20;;;2.50;99.90;;;;;;5025774;28;20124;-74
2022/01/12 12:43:05;;;;;;;154.23;59.58;;;2.50;99.90;;;;;;5038714;28;20512;-75
2022/01/12 12:45:57;;;;;;;154.15;65.10;;;2.50;99.90;;;;;;5067215;28;20048;-75
2022/01/12 12:48:29;;;;;;;156.02;65.30;;;2.50;99.90;;;;;;5042572;28;20048;-75
2022/01/12 12:51:02;;;;;;;186.00;69.68;;;2.50;99.90;;;;;;5044821;28;20040;-74
2022/01/12 12:53:31;;;;;;;166.95;62.15;;;2.60;99.90;;;;;;5025876;28;20052;-74
2022/01/12 12:55:58;;;;;;;187.23;65.13;;;2.60;99.90;;;;;;5025221;28;20076;-74
2022/01/12 12:58:31;;;;;;;167.73;65.22;;;2.40;99.90;;;;;;5023701;28;20055;-75
2022/01/12 13:01:06;;;;;;;182.82;67.60;;;2.40;99.90;;;;;;5025229;28;20053;-75
2022/01/12 13:03:35;;;;;;;159.10;61.67;;;2.50;99.90;;;;;;5042831;28;20104;-75
2022/01/12 13:06:02;;;;;;;186.52;65.38;;;2.40;99.90;;;;;;5036174;28;20503;-74
2022/01/12 13:08:29;;;;;;;188.32;66.03;;;2.40;99.90;;;;;;5049342;28;20052;-75
2022/01/12 13:10:56;;;;;;;200.82;69.38;;;2.50;99.90;;;;;;5049409;28;20105;-74
2022/01/12 13:13:23;;;;;;;190.80;63.50;;;2.40;99.90;;;;;;5051298;28;20110;-74
2022/01/12 13:15:54;;;;;;;205.27;66.18;;;2.40;99.90;;;;;;5046437;28;20052;-74
2022/01/12 13:18:22;;;;;;;195.77;66.85;;;2.50;99.90;;;;;;5043671;28;20063;-74
2022/01/12 13:21:07;;;;;;;205.60;66.63;;;2.60;99.90;;;;;;5061826;28;20574;-74
2022/01/12 13:23:41;;;;;;;220.68;69.25;;;2.60;99.90;;;;;;5027532;28;20049;-74
2022/01/12 13:26:13;;;;;;;206.30;66.88;;;2.50;99.90;;;;;;5044616;28;20507;-74
2022/01/12 13:28:43;;;;;;;213.98;66.30;;;2.50;99.90;;;;;;5043071;28;20052;-75
2022/01/12 13:31:12;;;;;;;260.13;73.57;;;2.60;99.90;;;;;;5042274;28;20055;-75
2022/01/12 13:33:42;;;;;;;259.05;71.72;;;2.60;99.90;;;;;;5038333;28;20100;-75
2022/01/12 13:36:26;;;;;;;268.83;76.65;;;2.60;99.90;;;;;;5033212;28;20445;-75
2022/01/12 13:38:53;;;;;;;255.20;71.35;;;2.60;99.90;;;;;;5042798;28;20067;-75
2022/01/12 13:41:29;;;;;;;280.58;75.70;;;2.70;99.90;;;;;;5026334;28;20121;-74
2022/01/12 13:44:07;;;;;;;321.50;78.22;;;2.60;99.90;;;;;;5049074;28;20295;-75
2022/01/12 13:46:39;;;;;;;286.60;74.75;;;2.70;99.90;;;;;;5052358;28;20855;-75
2022/01/12 13:52:06;;;;;;;497.55;93.95;;;2.60;99.90;;;;;;5067783;28;20320;-75
2022/01/12 13:54:35;;;;;;;684.92;106.43;;;2.60;99.90;;;;;;5057835;28;20040;-75
2022/01/12 13:57:02;;;;;;;615.70;93.40;;;2.50;99.90;;;;;;5026892;28;20109;-75
2022/01/12 13:59:30;;;;;;;568.38;88.30;;;2.60;99.90;;;;;;5062260;28;20064;-75
2022/01/12 14:01:59;;;;;;;571.28;91.28;;;2.50;99.90;;;;;;5045149;28;20478;-75
2022/01/12 14:04:37;;;;;;;669.80;103.17;;;2.40;99.90;;;;;;5074624;28;20434;-74
2022/01/12 14:07:07;;;;;;;708.67;105.35;;;2.50;99.90;;;;;;5055305;28;20136;-75
2022/01/12 14:09:42;;;;;;;527.72;90.70;;;2.50;99.90;;;;;;5057140;28;20040;-75
2022/01/12 14:12:16;;;;;;;747.92;110.57;;;2.50;99.90;;;;;;5043174;28;20068;-75
2022/01/12 14:14:46;;;;;;;760.15;115.13;;;2.40;99.90;;;;;;5050477;28;20052;-75
2022/01/12 14:17:43;;;;;;;565.33;97.45;;;2.40;99.90;;;;;;5042559;28;20045;-75
2022/01/12 14:20:24;;;;;;;645.22;100.53;;;2.40;99.90;;;;;;5056996;28;20182;-75
2022/01/12 14:23:01;;;;;;;729.00;103.65;;;2.40;99.90;;;;;;5040988;28;20056;-75
2022/01/12 14:25:45;;;;;;;656.83;101.72;;;2.40;99.90;;;;;;5061941;28;20053;-75
2022/01/12 14:28:15;;;;;;;818.47;116.63;;;2.50;99.90;;;;;;5027529;28;20048;-75
2022/01/12 14:30:42;;;;;;;707.83;102.90;;;2.40;99.90;;;;;;5026308;28;20549;-75
2022/01/12 14:33:10;;;;;;;792.65;119.85;;;2.50;99.90;;;;;;5034876;28;20087;-75
2022/01/12 14:35:37;;;;;;;643.17;100.22;;;2.50;99.90;;;;;;5034753;28;20048;-76
2022/01/12 14:38:04;;;;;;;750.75;106.43;;;2.50;99.90;;;;;;5021592;28;20538;-75
2022/01/12 14:40:33;;;;;;;731.20;112.60;;;2.50;99.90;;;;;;5039972;28;20082;-75
2022/01/12 14:43:03;;;;;;;866.97;126.63;;;2.50;99.90;;;;;;5020155;28;20293;-75
2022/01/12 14:45:33;;;;;;;910.88;127.25;;;2.50;99.90;;;;;;5052906;28;20686;-75
2022/01/12 14:48:02;;;;;;;760.58;113.18;;;2.60;99.90;;;;;;5025974;28;20413;-75
2022/01/12 14:50:30;;;;;;;692.58;107.47;;;2.50;99.90;;;;;;5042095;28;20587;-75
2022/01/12 14:52:58;;;;;;;752.42;110.60;;;2.50;99.90;;;;;;5021341;28;20106;-75
2022/01/12 14:55:44;;;;;;;677.83;103.15;;;2.50;99.90;;;;;;5025177;28;20411;-75
2022/01/12 14:58:11;;;;;;;802.42;118.25;;;2.60;99.90;;;;;;5020944;28;20147;-75
2022/01/12 15:00:37;;;;;;;778.17;115.00;;;2.60;99.90;;;;;;5038853;28;20045;-75
2022/01/12 15:03:06;;;;;;;761.28;113.25;;;2.50;99.90;;;;;;5041153;28;20063;-75
2022/01/12 15:05:35;;;;;;;843.47;118.57;;;2.40;99.90;;;;;;5041969;28;20040;-76
2022/01/12 15:08:03;;;;;;;836.00;118.20;;;2.50;99.90;;;;;;5041428;28;20119;-75
2022/01/12 15:10:30;;;;;;;1011.17;137.85;;;2.50;99.90;;;;;;5058887;28;20036;-76
2022/01/12 15:13:13;;;;;;;893.10;126.25;;;2.50;99.90;;;;;;5032630;28;20080;-75
2022/01/12 15:15:40;;;;;;;716.80;107.72;;;2.50;99.90;;;;;;5058227;28;20055;-75
2022/01/12 15:18:07;;;;;;;785.53;113.88;;;2.40;99.90;;;;;;5041674;28;20428;-75